createdAt,value
2019-03-22T00:00:46.881Z,5.20
2019-03-22T00:03:16.338Z,5.20
2019-03-22T00:05:46.504Z,5.20
2019-03-22T00:08:15.976Z,5.20
2019-03-22T00:10:45.412Z,5.30
2019-03-22T00:13:14.818Z,5.40
2019-03-22T00:15:44.420Z,5.60
2019-03-22T00:18:13.829Z,5.60
2019-03-22T00:20:43.252Z,5.60
2019-03-22T00:23:12.740Z,5.50
2019-03-22T00:25:42.146Z,5.40
2019-03-22T00:28:11.620Z,5.30
2019-03-22T02:23:21.363Z,5.50
2019-03-22T02:25:50.953Z,5.60
2019-03-22T02:28:20.654Z,5.60
2019-03-22T02:30:50.146Z,5.70
2019-03-22T02:33:19.606Z,5.70
2019-03-22T02:35:49.070Z,5.70
2019-03-22T02:38:18.747Z,5.70
2019-03-22T02:40:48.220Z,5.70
2019-03-22T02:43:17.784Z,5.70
2019-03-22T02:45:47.308Z,5.70
2019-03-22T02:48:16.932Z,5.70
2019-03-22T02:50:46.405Z,5.70
2019-03-22T02:53:15.921Z,5.70
2019-03-22T02:55:45.878Z,5.70
2019-03-22T02:58:20.938Z,5.80
2019-03-22T03:00:46.695Z,5.80
2019-03-22T03:03:16.154Z,5.80
2019-03-22T03:05:45.616Z,5.80
2019-03-22T03:08:15.535Z,5.90
2019-03-22T03:10:44.934Z,5.90
2019-03-22T03:13:14.457Z,5.90
2019-03-22T03:15:44.048Z,5.90
2019-03-22T03:18:15.230Z,6.00
2019-03-22T03:20:44.613Z,6.10
2019-03-22T03:23:14.056Z,6.10
2019-03-22T03:25:43.514Z,6.20
2019-03-22T03:28:12.959Z,6.20
2019-03-22T03:30:42.351Z,6.20
2019-03-22T03:33:11.809Z,6.20
2019-03-22T03:35:41.290Z,6.30
2019-03-22T03:38:11.677Z,6.30
2019-03-22T03:40:42.295Z,6.30
2019-03-22T03:43:11.816Z,6.30
2019-03-22T03:45:41.841Z,6.30
2019-03-22T03:48:11.578Z,6.30
2019-03-22T03:50:42.123Z,6.30
2019-03-22T03:53:11.497Z,6.40
2019-03-22T03:55:40.911Z,6.40
2019-03-22T03:58:10.457Z,6.40
2019-03-22T04:00:39.941Z,6.40
2019-03-22T04:03:09.395Z,6.40
2019-03-22T04:05:39.916Z,6.50
2019-03-22T04:08:09.313Z,6.50
2019-03-22T04:10:38.684Z,6.50
2019-03-22T04:13:08.091Z,6.60
2019-03-22T04:15:37.857Z,6.70
2019-03-22T04:18:08.773Z,6.70
2019-03-22T04:20:38.485Z,6.70
2019-03-22T04:23:07.888Z,6.70
2019-03-22T04:25:37.429Z,6.80
2019-03-22T04:28:06.777Z,6.70
2019-03-22T04:30:37.145Z,6.80
2019-03-22T04:33:07.024Z,6.80
2019-03-22T04:35:37.872Z,6.90
2019-03-22T04:38:07.233Z,6.80
2019-03-22T04:40:36.685Z,6.80
2019-03-22T04:43:06.157Z,6.90
2019-03-22T04:45:36.905Z,6.90
2019-03-22T04:48:12.334Z,7.00
2019-03-22T04:50:43.553Z,7.00
2019-03-22T04:53:16.092Z,7.00
2019-03-22T04:55:48.182Z,7.00
2019-03-22T04:58:19.180Z,7.00
2019-03-22T05:00:48.991Z,7.10
2019-03-22T05:03:20.372Z,7.00
2019-03-22T05:05:51.677Z,7.10
2019-03-22T05:08:22.690Z,7.10
2019-03-22T05:10:53.638Z,7.10
2019-03-22T05:13:25.106Z,7.00
2019-03-22T05:15:55.816Z,7.00
2019-03-22T05:18:26.836Z,7.00
2019-03-22T05:20:56.406Z,7.00
2019-03-22T05:23:26.601Z,7.00
2019-03-22T05:25:58.795Z,7.10
2019-03-22T05:28:30.452Z,7.10
2019-03-22T05:31:23.996Z,7.00
2019-03-22T05:33:54.892Z,7.00
2019-03-22T05:36:24.293Z,7.00
2019-03-22T05:38:53.761Z,7.00
2019-03-22T05:41:23.162Z,7.10
2019-03-22T05:43:52.536Z,7.10
2019-03-22T05:46:24.859Z,7.10
2019-03-22T05:48:54.239Z,7.10
2019-03-22T05:51:23.711Z,7.20
2019-03-22T05:53:53.094Z,7.20
2019-03-22T05:56:22.639Z,7.20
2019-03-22T05:58:52.103Z,7.20
2019-03-22T06:01:21.557Z,7.20
2019-03-22T06:03:50.916Z,7.20
2019-03-22T06:06:20.638Z,7.20
2019-03-22T06:08:50.128Z,7.20
2019-03-22T06:11:19.518Z,7.20
2019-03-22T06:13:48.882Z,7.30
2019-03-22T06:16:18.491Z,7.20
2019-03-22T06:18:50.359Z,7.30
2019-03-22T06:21:18.995Z,7.30
2019-03-22T06:23:48.393Z,7.20
2019-03-22T06:26:17.737Z,7.30
2019-03-22T06:28:47.106Z,7.30
2019-03-22T06:31:16.509Z,7.30
2019-03-22T06:33:46.032Z,7.40
2019-03-22T06:36:15.382Z,7.40
2019-03-22T06:38:44.768Z,7.40
2019-03-22T06:41:14.192Z,7.30
2019-03-22T06:43:44.617Z,7.40
2019-03-22T06:46:14.009Z,7.40
2019-03-22T06:48:43.528Z,7.30
2019-03-22T06:51:12.882Z,7.40
2019-03-22T06:53:42.661Z,7.40
2019-03-22T06:56:12.024Z,7.40
2019-03-22T06:58:41.393Z,7.30
2019-03-22T07:01:10.793Z,7.40
2019-03-22T07:03:40.217Z,7.40
2019-03-22T07:06:09.714Z,7.40
2019-03-22T07:08:39.100Z,7.40
2019-03-22T07:11:08.530Z,7.50
2019-03-22T07:13:38.122Z,7.40
2019-03-22T07:16:07.514Z,7.50
2019-03-22T07:18:36.875Z,7.60
2019-03-22T07:21:06.225Z,7.60
2019-03-22T07:23:35.624Z,7.60
2019-03-22T07:26:05.072Z,7.60
2019-03-22T07:28:34.493Z,7.60
2019-03-22T07:31:03.930Z,7.60
2019-03-22T07:33:33.472Z,7.60
2019-03-22T07:36:02.900Z,7.70
2019-03-22T07:38:32.267Z,7.70
2019-03-22T07:41:01.729Z,7.70
2019-03-22T07:43:31.252Z,7.80
2019-03-22T07:46:00.638Z,7.70
2019-03-22T07:48:31.655Z,7.80
2019-03-22T07:51:01.070Z,7.80
2019-03-22T07:53:30.609Z,7.80
2019-03-22T07:56:00.029Z,7.90
2019-03-22T07:58:29.584Z,8.00
2019-03-22T08:00:58.937Z,7.90
2019-03-22T08:03:28.321Z,7.90
2019-03-22T08:05:57.682Z,7.90
2019-03-22T08:08:27.072Z,8.00
2019-03-22T08:10:56.483Z,8.00
2019-03-22T08:13:25.864Z,8.00
2019-03-22T08:15:57.471Z,8.00
2019-03-22T08:18:26.536Z,8.10
2019-03-22T08:20:56.099Z,8.10
2019-03-22T08:23:25.517Z,8.10
2019-03-22T08:25:55.017Z,8.20
2019-03-22T08:28:24.413Z,8.20
2019-03-22T08:30:54.836Z,8.30
2019-03-22T08:33:24.299Z,8.20
2019-03-22T08:35:53.661Z,8.30
2019-03-22T08:38:23.145Z,8.30
2019-03-22T08:41:05.028Z,8.40
2019-03-22T08:43:34.557Z,8.20
2019-03-22T08:46:04.925Z,8.30
2019-03-22T08:48:34.571Z,8.30
2019-03-22T08:51:04.053Z,8.30
2019-03-22T08:53:33.505Z,8.30
2019-03-22T08:56:02.896Z,8.30
2019-03-22T08:58:32.267Z,8.30
2019-03-22T09:01:01.879Z,8.40
2019-03-22T09:03:31.460Z,8.50
2019-03-22T09:06:01.129Z,8.60
2019-03-22T09:08:30.557Z,8.50
2019-03-22T09:11:00.088Z,8.70
2019-03-22T09:13:29.842Z,8.90
2019-03-22T09:15:59.279Z,9.00
2019-03-22T09:18:28.749Z,9.20
2019-03-22T09:20:58.201Z,9.20
2019-03-22T09:23:27.771Z,9.10
2019-03-22T09:25:57.289Z,9.10
2019-03-22T09:28:45.885Z,9.30
2019-03-22T09:31:17.138Z,9.20
2019-03-22T09:33:46.779Z,9.30
2019-03-22T09:36:16.179Z,9.30
2019-03-22T09:38:45.643Z,9.60
2019-03-22T09:41:15.153Z,9.80
2019-03-22T09:43:44.700Z,9.80
2019-03-22T09:46:14.198Z,9.60
2019-03-22T09:48:43.730Z,9.80
2019-03-22T09:51:13.419Z,10.20
2019-03-22T09:53:42.918Z,10.30
2019-03-22T09:56:13.514Z,10.00
2019-03-22T09:58:43.001Z,9.70
2019-03-22T10:01:23.145Z,9.40
2019-03-22T10:03:43.672Z,9.70
2019-03-22T10:06:14.225Z,9.70
2019-03-22T10:08:43.780Z,9.90
2019-03-22T10:11:14.296Z,10.20
2019-03-22T10:13:43.912Z,10.50
2019-03-22T10:16:13.434Z,10.70
2019-03-22T10:18:42.856Z,10.70
2019-03-22T10:21:21.856Z,10.80
2019-03-22T10:23:43.328Z,11.20
2019-03-22T10:26:13.995Z,12.30
2019-03-22T10:28:44.153Z,12.30
2019-03-22T10:31:13.700Z,12.30
2019-03-22T10:33:43.339Z,12.80
2019-03-22T10:36:12.870Z,13.70
2019-03-22T10:38:42.397Z,15.00
2019-03-22T10:41:12.000Z,16.50
2019-03-22T10:43:41.501Z,16.60
2019-03-22T10:46:11.045Z,16.70
2019-03-22T10:48:40.881Z,16.80
2019-03-22T10:51:10.745Z,17.60
2019-03-22T10:53:40.334Z,17.80
2019-03-22T10:56:09.764Z,17.70
2019-03-22T10:58:40.123Z,16.90
2019-03-22T11:01:09.581Z,17.50
2019-03-22T11:03:39.361Z,17.50
2019-03-22T11:06:09.582Z,17.50
2019-03-22T11:08:38.993Z,17.50
2019-03-22T11:11:08.555Z,17.40
2019-03-22T11:13:38.030Z,17.30
2019-03-22T11:16:10.915Z,18.20
2019-03-22T11:18:40.376Z,18.40
2019-03-22T11:21:09.858Z,18.50
2019-03-22T11:23:39.326Z,19.50
2019-03-22T11:26:08.894Z,19.60
2019-03-22T11:28:38.392Z,19.30
2019-03-22T11:31:08.289Z,20.10
2019-03-22T11:33:37.902Z,20.00
2019-03-22T11:36:07.482Z,20.10
2019-03-22T11:38:37.293Z,20.50
2019-03-22T11:41:06.915Z,21.30
2019-03-22T11:43:36.453Z,21.60
2019-03-22T11:46:06.359Z,21.30
2019-03-22T11:48:35.853Z,21.50
2019-03-22T11:51:05.630Z,21.70
2019-03-22T11:53:35.161Z,21.80
2019-03-22T11:56:05.190Z,21.70
2019-03-22T11:58:34.690Z,22.00
2019-03-22T12:01:04.324Z,21.70
2019-03-22T12:03:34.109Z,21.90
2019-03-22T12:06:03.681Z,22.00
2019-03-22T12:08:33.214Z,22.40
2019-03-22T12:11:02.725Z,23.20
2019-03-22T12:13:34.709Z,22.70
2019-03-22T12:16:04.496Z,22.60
2019-03-22T12:18:34.107Z,22.70
2019-03-22T12:21:03.717Z,22.20
2019-03-22T12:23:33.116Z,22.10
2019-03-22T12:26:02.593Z,22.30
2019-03-22T12:28:32.158Z,22.60
2019-03-22T12:31:01.895Z,22.10
2019-03-22T12:33:31.340Z,21.70
2019-03-22T12:36:00.827Z,21.50
2019-03-22T12:38:31.290Z,22.10
2019-03-22T12:41:00.670Z,22.20
2019-03-22T12:43:31.187Z,22.30
2019-03-22T12:46:00.637Z,22.40
2019-03-22T12:48:30.219Z,22.90
2019-03-22T12:51:01.406Z,23.00
2019-03-22T12:53:30.968Z,22.90
2019-03-22T12:56:00.441Z,23.00
2019-03-22T12:58:30.879Z,23.30
2019-03-22T13:01:00.260Z,22.50
2019-03-22T13:03:29.633Z,22.60
2019-03-22T13:05:59.036Z,22.60
2019-03-22T13:08:28.523Z,22.70
2019-03-22T13:10:58.008Z,22.60
2019-03-22T13:13:28.424Z,22.60
2019-03-22T13:15:58.162Z,22.60
2019-03-22T13:18:27.708Z,23.00
2019-03-22T13:20:57.244Z,22.30
2019-03-22T13:23:26.749Z,22.30
2019-03-22T13:25:56.233Z,22.20
2019-03-22T13:28:25.598Z,22.40
2019-03-22T13:30:55.026Z,21.70
2019-03-22T13:33:24.544Z,21.60
2019-03-22T13:35:55.483Z,21.80
2019-03-22T13:38:25.008Z,22.20
2019-03-22T13:40:54.422Z,22.70
2019-03-22T13:43:23.972Z,22.50
2019-03-22T13:45:53.465Z,22.90
2019-03-22T13:48:22.968Z,22.60
2019-03-22T13:50:52.498Z,22.80
2019-03-22T13:53:22.766Z,23.30
2019-03-22T13:55:52.440Z,23.30
2019-03-22T13:58:21.875Z,23.30
2019-03-22T14:00:51.420Z,23.40
2019-03-22T14:03:20.822Z,23.50
2019-03-22T14:05:51.719Z,23.70
2019-03-22T14:08:21.553Z,23.20
2019-03-22T14:10:50.955Z,22.80
2019-03-22T14:13:20.452Z,23.50
2019-03-22T14:15:49.956Z,23.60
2019-03-22T14:18:19.398Z,23.90
2019-03-22T14:20:50.162Z,23.40
2019-03-22T14:23:19.619Z,23.40
2019-03-22T14:25:48.971Z,23.30
2019-03-22T14:28:18.534Z,23.20
2019-03-22T14:30:48.433Z,23.30
2019-03-22T14:33:19.457Z,23.10
2019-03-22T14:35:48.858Z,23.30
2019-03-22T14:38:18.431Z,23.40
2019-03-22T14:40:47.836Z,23.10
2019-03-22T14:43:17.208Z,22.80
2019-03-22T14:45:46.689Z,22.80
2019-03-22T14:48:16.096Z,22.60
2019-03-22T14:50:46.445Z,22.60
2019-03-22T14:53:16.193Z,23.00
2019-03-22T14:55:45.772Z,23.10
2019-03-22T14:58:15.348Z,23.10
2019-03-22T15:00:44.953Z,23.10
2019-03-22T15:03:27.700Z,23.00
2019-03-22T15:05:57.472Z,22.70
2019-03-22T15:08:27.218Z,22.60
2019-03-22T15:10:58.144Z,22.60
2019-03-22T15:13:29.251Z,22.60
2019-03-22T15:16:16.754Z,22.60
2019-03-22T15:18:50.704Z,22.50
2019-03-22T15:21:25.125Z,22.70
2019-03-22T15:24:12.609Z,22.50
2019-03-22T15:27:00.210Z,22.50
2019-03-22T15:29:31.248Z,22.30
2019-03-22T15:32:02.374Z,22.40
2019-03-22T15:34:49.922Z,22.60
2019-03-22T15:37:23.911Z,22.40
2019-03-22T15:40:03.188Z,22.40
2019-03-22T15:42:33.712Z,22.80
2019-03-22T15:45:04.143Z,22.30
2019-03-22T15:47:33.594Z,22.10
2019-03-22T15:50:03.268Z,21.80
2019-03-22T15:52:32.771Z,21.30
2019-03-22T15:55:02.421Z,20.70
2019-03-22T15:57:32.682Z,20.20
2019-03-22T16:00:02.756Z,19.80
2019-03-22T16:02:33.461Z,19.40
2019-03-22T16:05:03.248Z,19.10
2019-03-22T16:07:45.638Z,18.60
2019-03-22T16:10:36.848Z,18.30
2019-03-22T16:13:15.293Z,17.90
2019-03-22T16:15:57.805Z,17.70
2019-03-22T16:18:37.893Z,17.60
2019-03-22T16:21:07.782Z,17.50
2019-03-22T16:23:37.290Z,17.40
2019-03-22T16:26:06.882Z,17.40
2019-03-22T16:28:36.423Z,17.50
2019-03-22T16:31:05.904Z,17.50
2019-03-22T16:33:35.329Z,17.50
2019-03-22T16:36:04.898Z,17.60
2019-03-22T16:38:34.325Z,17.60
2019-03-22T16:41:03.718Z,17.60
2019-03-22T16:43:34.664Z,17.60
2019-03-22T16:46:04.307Z,17.50
2019-03-22T16:48:34.496Z,17.50
2019-03-22T16:51:04.240Z,17.50
2019-03-22T16:53:33.620Z,17.30
2019-03-22T16:56:03.174Z,17.00
2019-03-22T16:58:32.558Z,16.60
2019-03-22T17:01:02.321Z,16.20
2019-03-22T17:03:33.046Z,15.90
2019-03-22T17:06:02.482Z,15.80
2019-03-22T17:08:32.103Z,15.60
2019-03-22T17:11:01.537Z,15.40
2019-03-22T17:13:31.050Z,15.30
2019-03-22T17:16:02.032Z,15.10
2019-03-22T17:18:40.208Z,14.90
2019-03-22T17:21:22.473Z,14.70
2019-03-22T17:23:55.488Z,14.60
2019-03-22T17:26:25.161Z,14.40
2019-03-22T17:28:55.393Z,14.30
2019-03-22T17:31:25.279Z,14.20
2019-03-22T17:33:55.196Z,14.20
2019-03-22T17:36:24.580Z,13.90
2019-03-22T17:38:54.544Z,13.90
2019-03-22T17:41:24.054Z,13.70
2019-03-22T17:43:53.493Z,13.40
2019-03-22T17:46:22.936Z,13.40
2019-03-22T17:48:52.412Z,13.40
2019-03-22T17:51:21.901Z,13.30
2019-03-22T17:53:51.492Z,13.20
2019-03-22T17:56:21.116Z,13.10
2019-03-22T17:58:50.587Z,13.00
2019-03-22T18:01:20.137Z,12.90
2019-03-22T18:03:49.662Z,12.80
2019-03-22T18:06:20.307Z,12.60
2019-03-22T18:08:49.794Z,12.50
2019-03-22T18:11:20.986Z,12.40
2019-03-22T18:13:50.683Z,12.30
2019-03-22T18:16:20.275Z,12.10
2019-03-22T18:18:49.888Z,12.00
2019-03-22T18:21:19.551Z,11.90
2019-03-22T18:23:49.181Z,12.00
2019-03-22T18:26:20.559Z,12.00
2019-03-22T18:28:49.921Z,11.90
2019-03-22T18:31:19.493Z,11.80
2019-03-22T18:33:49.016Z,11.70
2019-03-22T18:36:20.358Z,11.60
2019-03-22T18:38:49.815Z,11.50
2019-03-22T18:41:19.355Z,11.40
2019-03-22T18:43:48.819Z,11.30
2019-03-22T18:46:18.530Z,11.20
2019-03-22T18:48:48.110Z,11.10
2019-03-22T18:51:17.582Z,11.00
2019-03-22T18:53:47.048Z,10.70
2019-03-22T18:56:16.524Z,10.50
2019-03-22T18:58:45.906Z,10.40
2019-03-22T19:01:17.050Z,10.40
2019-03-22T19:03:46.717Z,10.30
2019-03-22T19:06:16.321Z,10.10
2019-03-22T19:08:45.800Z,10.20
2019-03-22T19:11:15.309Z,10.10
2019-03-22T19:13:45.841Z,10.10
2019-03-22T19:16:15.298Z,10.00
2019-03-22T19:18:44.744Z,9.90
2019-03-22T19:21:15.412Z,9.70
2019-03-22T19:23:44.817Z,9.60
2019-03-22T19:26:14.265Z,9.40
2019-03-22T19:28:43.804Z,9.20
2019-03-22T19:31:13.288Z,9.00
2019-03-22T19:33:42.845Z,8.90
2019-03-22T19:36:12.415Z,8.60
2019-03-22T19:38:41.934Z,8.50
2019-03-22T19:41:11.344Z,8.30
2019-03-22T19:43:40.780Z,8.10
2019-03-22T19:46:11.711Z,8.00
2019-03-22T19:48:41.125Z,8.00
2019-03-22T19:51:10.520Z,8.00
2019-03-22T19:53:40.131Z,8.00
2019-03-22T19:56:09.559Z,8.00
2019-03-22T19:58:39.023Z,8.00
2019-03-22T20:01:08.606Z,7.90
2019-03-22T20:03:38.103Z,7.90
2019-03-22T20:06:07.921Z,8.00
2019-03-22T20:08:37.407Z,8.00
2019-03-22T20:11:06.872Z,7.90
2019-03-22T20:13:36.282Z,8.00
2019-03-22T20:16:05.751Z,8.00
2019-03-22T20:18:35.270Z,8.00
2019-03-22T20:21:04.888Z,7.90
2019-03-22T20:23:35.880Z,7.80
2019-03-22T20:26:05.404Z,7.80
2019-03-22T20:28:34.977Z,7.80
2019-03-22T20:31:04.759Z,7.90
2019-03-22T20:33:35.695Z,7.80
2019-03-22T20:36:05.314Z,7.80
2019-03-22T20:38:34.909Z,7.70
2019-03-22T20:41:04.780Z,7.70
2019-03-22T20:43:34.426Z,7.70
2019-03-22T20:46:04.005Z,7.60
2019-03-22T20:48:34.577Z,7.50
2019-03-22T20:51:04.065Z,7.50
2019-03-22T20:53:33.654Z,7.50
2019-03-22T20:56:03.061Z,7.40
2019-03-22T20:58:34.290Z,7.40
2019-03-22T21:01:03.693Z,7.40
2019-03-22T21:03:33.114Z,7.40
2019-03-22T21:06:04.446Z,7.50
2019-03-22T21:08:35.462Z,7.50
2019-03-22T21:11:05.199Z,7.50
2019-03-22T21:13:34.596Z,7.50
2019-03-22T21:16:04.013Z,7.50
2019-03-22T21:18:33.505Z,7.50
2019-03-22T21:21:03.040Z,7.60
2019-03-22T21:23:36.659Z,7.60
2019-03-22T21:26:03.638Z,7.60
2019-03-22T21:28:33.064Z,7.60
2019-03-22T21:31:02.508Z,7.50
2019-03-22T21:33:31.870Z,7.40
2019-03-22T21:36:01.413Z,7.50
2019-03-22T21:38:30.832Z,7.50
2019-03-22T21:41:00.211Z,7.40
2019-03-22T21:43:29.648Z,7.50
2019-03-22T21:45:59.118Z,7.50
2019-03-22T21:48:28.480Z,7.60
2019-03-22T21:50:57.945Z,7.60
2019-03-22T21:53:27.293Z,7.70
2019-03-22T21:55:56.671Z,7.70
2019-03-22T21:58:26.037Z,7.70
2019-03-22T22:00:55.909Z,7.70
2019-03-22T22:03:25.260Z,7.80
2019-03-22T22:05:54.657Z,7.80
2019-03-22T22:08:24.135Z,7.90
2019-03-22T22:10:59.779Z,7.90
2019-03-22T22:13:26.810Z,7.90
2019-03-22T22:15:59.848Z,8.00
2019-03-22T22:18:28.833Z,8.00
2019-03-22T22:21:00.003Z,8.00
2019-03-22T22:23:29.575Z,8.00
2019-03-22T22:25:59.209Z,8.00
2019-03-22T22:28:30.148Z,8.10
2019-03-22T22:30:59.626Z,8.10
2019-03-22T22:33:30.897Z,8.10
2019-03-22T22:36:00.520Z,8.10
2019-03-22T22:38:29.903Z,8.10
2019-03-22T22:40:59.349Z,8.10
2019-03-22T22:43:28.712Z,8.20
2019-03-22T22:45:58.229Z,8.20
2019-03-22T22:48:27.652Z,8.20
2019-03-22T22:50:57.029Z,8.20
2019-03-22T22:53:26.403Z,8.30
2019-03-22T22:55:55.961Z,8.30
2019-03-22T22:58:25.348Z,8.30
2019-03-22T23:00:55.051Z,8.40
2019-03-22T23:03:26.059Z,8.40
2019-03-22T23:05:55.997Z,8.40
2019-03-22T23:08:25.373Z,8.50
2019-03-22T23:10:55.829Z,8.50
2019-03-22T23:13:25.206Z,8.50
2019-03-22T23:15:54.628Z,8.40
2019-03-22T23:18:24.096Z,8.50
2019-03-22T23:20:53.533Z,8.50
2019-03-22T23:23:22.985Z,8.50
2019-03-22T23:25:52.432Z,8.50
2019-03-22T23:28:21.881Z,8.50
2019-03-22T23:30:51.298Z,8.50
2019-03-22T23:33:20.764Z,8.50
2019-03-22T23:35:50.679Z,8.50
2019-03-22T23:38:20.252Z,8.50
2019-03-22T23:40:50.333Z,8.50
2019-03-22T23:43:19.789Z,8.50
2019-03-22T23:45:49.217Z,8.50
2019-03-22T23:48:18.681Z,8.50
2019-03-22T23:50:48.184Z,8.50
2019-03-22T23:53:17.622Z,8.50
2019-03-22T23:55:47.088Z,8.50
2019-03-22T23:58:16.628Z,8.50
